Airfield :
LOGIN :

Register | Disclaimer

   EN    FR    IT 

 










Legend :    VFR   Marginal VFR   IFR   Intensive IFR   Very Intensive IFR
Visi :
Ceiling :
>= 8 km
>= 3000ft
5 to 8 km
1000 to 3000 ft
1500m to 5 km
500 to 1000 ft
800 to 1500m
200 to 500 ft
< 800m
< 200 ft
Symbols :   Thunderstorms  Fog  Heavy snow  Heavy precipitations  Wind > 20 kt
SIGMETs :     Misc.  Thunderstorms  Icing  Turbulence  Mountain Waves  Volcanic Ashes






- Airport Elevation : 1079 ft


ETIK - Illesheim Air Base

CURRENT METAR :
  • 192156Z AUTO 23003KT 9999 CLR M01/M01 A3008 RMK AO2 SLP203 T10151015 $

EXPIRED METARs :
  • 192056Z AUTO 23003KT 9999 CLR M01/M01 A3007 RMK AO2 SLP200 T10081008 50004
  • 191956Z AUTO 00000KT 9999 BKN020 03/03 A3007 RMK AO2 BKN V SCT SLP197 T00300030 $

TAF AMD TAF ETIK
Valid from the 19 at 20:00 until the 20 at 21:00 UTC


1920/2021 30005KT 9999 OVC020 620304 QNH3004INS
BECMG 2005/2006 07005KT 8000 BR OVC007 QNH3002INS
BECMG 2010/2011 08005KT 9999 NSW OVC007 QNH2998INS
BECMG 2015/2016 07005KT 9999 BKN020 QNH2995INS TX06/1915Z TNM01/2003Z



MET'MAP, your aeronautical weather chart ! - Copyright ORBIFLY December 2007 - Disclaimer

ORBIFLY MET'MAP TEAM :

Programming & Development : Alexandra Zaïnal
Concept & Development : Baudouin d'Aumeries
Co-Development & Prog : Marc-Olivier Méhu
Technical & hardware support : Manuel Goepfert

Contact : metmap@orbifly.com




SOURCES & CREDITS :

   NOAA